Time;durP1;ratioP1;P1;durP2;ratioP2;P2;SDS_P1;SDS_P2;PMS_P1;PMS_P2;Temp;Humidity;BMP_temperature;BMP_pressure;BME280_temperature;BME280_humidity;BME280_pressure;Samples;Min_cycle;Max_cycle;Signal;HPM_P1;HPM_P2
2022/09/30 00:01:29;;;;;;;7.60;4.97;;;11.70;99.90;;;;;;4973682;28;20478;-83
2022/09/30 00:03:56;;;;;;;5.53;5.00;;;11.80;99.90;;;;;;4970783;28;20483;-83
2022/09/30 00:06:25;;;;;;;5.63;5.13;;;11.80;99.90;;;;;;4971065;28;20477;-82
2022/09/30 00:08:52;;;;;;;6.70;4.93;;;11.70;99.90;;;;;;4968623;28;20971;-84
2022/09/30 00:11:24;;;;;;;4.40;4.00;;;11.70;99.90;;;;;;4971896;28;20479;-83
2022/09/30 00:13:52;;;;;;;5.13;4.60;;;11.80;99.90;;;;;;4968949;28;20534;-81
2022/09/30 00:16:20;;;;;;;4.93;4.43;;;11.90;99.90;;;;;;4970903;28;20447;-84
2022/09/30 00:18:47;;;;;;;5.10;4.23;;;11.90;99.90;;;;;;4979348;28;20455;-82
2022/09/30 00:21:15;;;;;;;6.37;5.37;;;11.90;99.90;;;;;;4983470;28;20455;-81
2022/09/30 00:23:43;;;;;;;7.77;4.70;;;11.90;99.90;;;;;;4980836;28;20522;-81
2022/09/30 00:26:18;;;;;;;4.90;4.30;;;11.80;99.90;;;;;;4981732;28;20454;-81
2022/09/30 00:28:50;;;;;;;5.97;4.00;;;11.80;99.90;;;;;;4979483;28;20505;-81
2022/09/30 00:31:18;;;;;;;5.30;4.80;;;11.70;99.90;;;;;;4982583;28;20466;-80
2022/09/30 00:36:44;;;;;;;4.77;4.37;;;11.50;99.90;;;;;;4970352;28;20546;-84
2022/09/30 00:39:14;;;;;;;5.17;4.60;;;11.50;99.90;;;;;;4969723;28;20502;-83
2022/09/30 00:41:42;;;;;;;5.30;4.80;;;11.40;99.90;;;;;;4970766;28;20686;-83
2022/09/30 00:44:43;;;;;;;5.90;5.40;;;11.40;99.90;;;;;;4972762;28;20518;-83
2022/09/30 00:47:22;;;;;;;5.00;4.50;;;11.40;99.90;;;;;;4982070;28;20483;-80
2022/09/30 00:49:49;;;;;;;5.30;4.80;;;11.40;99.90;;;;;;4984120;28;20467;-82
2022/09/30 00:52:17;;;;;;;6.53;4.40;;;11.30;99.90;;;;;;4973497;28;20518;-82
2022/09/30 00:54:44;;;;;;;5.93;5.00;;;11.20;99.90;;;;;;4971970;28;21016;-82
2022/09/30 00:57:11;;;;;;;5.90;4.80;;;11.20;99.90;;;;;;4961805;28;20851;-83
2022/09/30 00:59:46;;;;;;;6.43;5.00;;;11.10;99.90;;;;;;4971339;28;20563;-83
2022/09/30 01:02:13;;;;;;;4.47;4.07;;;11.10;99.90;;;;;;4970503;28;20447;-82
2022/09/30 01:04:41;;;;;;;5.17;4.77;;;11.00;99.90;;;;;;4970896;28;20467;-83
2022/09/30 01:07:08;;;;;;;5.73;4.50;;;10.90;99.90;;;;;;4972395;28;20478;-83
2022/09/30 01:09:37;;;;;;;5.10;3.90;;;11.00;99.90;;;;;;4974932;28;20484;-82
2022/09/30 01:12:08;;;;;;;9.50;4.40;;;10.80;99.90;;;;;;4973370;28;20454;-84
2022/09/30 01:14:36;;;;;;;5.77;4.30;;;10.80;99.90;;;;;;4973187;28;20549;-83
2022/09/30 01:17:37;;;;;;;5.30;4.80;;;11.00;99.90;;;;;;4970126;28;21691;-81
2022/09/30 01:20:28;;;;;;;6.93;4.67;;;10.90;99.90;;;;;;4973191;28;20479;-83
2022/09/30 01:23:20;;;;;;;4.60;4.20;;;10.90;99.90;;;;;;4973009;28;20591;-81
2022/09/30 01:26:13;;;;;;;5.00;4.50;;;10.80;99.90;;;;;;4974698;28;20439;-82
2022/09/30 01:29:06;;;;;;;6.13;4.80;;;10.70;99.90;;;;;;4987029;28;20983;-82
2022/09/30 01:31:42;;;;;;;5.27;4.77;;;10.80;99.90;;;;;;4952872;28;20542;-83
2022/09/30 01:34:35;;;;;;;5.00;4.50;;;10.80;99.90;;;;;;4974645;28;20478;-83
2022/09/30 01:37:13;;;;;;;4.40;4.00;;;10.70;99.90;;;;;;4972791;28;21137;-83
2022/09/30 01:39:43;;;;;;;5.27;4.77;;;10.70;99.90;;;;;;4973100;28;20482;-83
2022/09/30 01:42:18;;;;;;;7.53;5.33;;;10.90;99.90;;;;;;4976184;28;20638;-84
2022/09/30 01:45:02;;;;;;;6.40;5.40;;;10.70;99.90;;;;;;4976289;28;20518;-82
2022/09/30 01:47:35;;;;;;;4.80;4.30;;;10.70;99.90;;;;;;4971522;28;20477;-81
2022/09/30 01:50:06;;;;;;;5.70;4.67;;;10.70;99.90;;;;;;4972835;28;20487;-82
2022/09/30 01:52:40;;;;;;;4.80;4.40;;;10.70;99.90;;;;;;4974918;28;20530;-82
2022/09/30 01:55:23;;;;;;;4.83;4.40;;;10.60;99.90;;;;;;4972775;28;20545;-82
2022/09/30 01:58:03;;;;;;;5.57;4.33;;;10.60;99.90;;;;;;4970528;28;20519;-82
2022/09/30 02:00:34;;;;;;;5.27;4.77;;;10.50;99.90;;;;;;4971793;28;20606;-82
2022/09/30 02:03:27;;;;;;;5.40;4.90;;;10.60;99.90;;;;;;4969684;28;20484;-81
2022/09/30 02:06:03;;;;;;;5.50;5.00;;;10.60;99.90;;;;;;4987232;28;20884;-84
2022/09/30 02:08:56;;;;;;;4.50;4.10;;;10.70;99.90;;;;;;4972215;28;20474;-84
2022/09/30 02:11:27;;;;;;;5.00;4.60;;;10.50;99.90;;;;;;4973477;28;20548;-79
2022/09/30 02:14:18;;;;;;;6.17;5.27;;;10.40;99.90;;;;;;4986148;28;20470;-80
2022/09/30 02:16:54;;;;;;;4.97;4.50;;;10.40;99.90;;;;;;4990800;28;20443;-82
2022/09/30 02:19:29;;;;;;;6.17;5.47;;;10.40;99.90;;;;;;4986268;28;20450;-81
2022/09/30 02:22:42;;;;;;;6.00;4.43;;;10.30;99.90;;;;;;4973035;28;20525;-83
2022/09/30 02:25:21;;;;;;;6.23;4.67;;;10.10;99.90;;;;;;4973552;28;20678;-83
2022/09/30 02:27:58;;;;;;;5.10;4.63;;;10.20;99.90;;;;;;4970931;28;20464;-83
2022/09/30 02:30:24;;;;;;;5.57;4.60;;;10.20;99.90;;;;;;4975275;28;20478;-82
2022/09/30 02:33:30;;;;;;;9.47;5.47;;;10.00;99.90;;;;;;4983228;28;20507;-81
2022/09/30 02:36:05;;;;;;;6.97;3.90;;;10.00;99.90;;;;;;4983791;28;20459;-82
2022/09/30 02:38:40;;;;;;;6.20;4.80;;;10.00;99.90;;;;;;4993418;28;20534;-82
2022/09/30 02:41:14;;;;;;;5.20;4.70;;;10.00;99.90;;;;;;4991427;28;20453;-83
2022/09/30 02:43:41;;;;;;;6.93;4.67;;;9.80;99.90;;;;;;4982646;28;20589;-82
2022/09/30 02:46:18;;;;;;;5.03;4.37;;;9.80;99.90;;;;;;4997791;28;20439;-80
2022/09/30 02:48:58;;;;;;;4.80;4.40;;;10.00;99.90;;;;;;4999868;28;20794;-82
2022/09/30 02:51:45;;;;;;;5.20;4.80;;;10.00;99.90;;;;;;4994980;28;20456;-81
2022/09/30 02:54:38;;;;;;;5.40;4.90;;;10.00;99.90;;;;;;4997642;28;20467;-81
2022/09/30 02:57:18;;;;;;;5.30;4.80;;;9.80;99.90;;;;;;4987735;28;20530;-82
2022/09/30 02:59:50;;;;;;;4.83;4.47;;;9.70;99.90;;;;;;4972928;28;20456;-81
2022/09/30 03:02:17;;;;;;;4.70;4.10;;;9.80;99.90;;;;;;4973921;28;20460;-82
2022/09/30 03:04:45;;;;;;;4.63;4.23;;;9.90;99.90;;;;;;4972799;28;20483;-84
2022/09/30 03:07:12;;;;;;;5.33;4.83;;;10.10;99.90;;;;;;4974407;28;20484;-82
2022/09/30 03:09:39;;;;;;;5.40;4.47;;;10.10;99.90;;;;;;4972713;28;20488;-84
2022/09/30 03:12:31;;;;;;;5.07;4.57;;;10.00;99.90;;;;;;4971013;28;20456;-82
2022/09/30 03:15:13;;;;;;;4.57;4.13;;;10.10;99.90;;;;;;4971831;28;21042;-84
2022/09/30 03:17:57;;;;;;;5.37;4.87;;;10.10;99.90;;;;;;4970337;28;21055;-81
2022/09/30 03:20:31;;;;;;;5.70;5.00;;;10.20;99.90;;;;;;4986530;28;20470;-82
2022/09/30 03:23:35;;;;;;;5.00;4.50;;;10.10;99.90;;;;;;4972409;28;20557;-82
2022/09/30 03:26:42;;;;;;;5.63;4.40;;;10.10;99.90;;;;;;4971192;28;20456;-81
2022/09/30 03:29:13;;;;;;;5.47;4.97;;;10.00;99.90;;;;;;4973713;28;20479;-83
2022/09/30 03:31:56;;;;;;;5.47;5.07;;;9.80;99.90;;;;;;4973195;28;20830;-82
2022/09/30 03:34:48;;;;;;;5.53;5.03;;;9.90;99.90;;;;;;4973554;28;20471;-81
2022/09/30 03:37:15;;;;;;;6.97;5.10;;;10.00;99.90;;;;;;4971795;28;20556;-81
2022/09/30 03:39:55;;;;;;;6.03;4.27;;;10.10;99.90;;;;;;4971640;28;20452;-82
2022/09/30 03:42:37;;;;;;;5.57;4.57;;;10.00;99.90;;;;;;4971179;28;20494;-82
2022/09/30 03:45:24;;;;;;;6.10;5.00;;;9.70;99.90;;;;;;4970684;28;20561;-82
2022/09/30 03:47:54;;;;;;;7.93;5.10;;;9.70;99.90;;;;;;4968337;28;20609;-82
2022/09/30 03:50:24;;;;;;;5.60;4.80;;;9.50;99.90;;;;;;4969058;28;20483;-82
2022/09/30 03:52:51;;;;;;;5.00;4.60;;;9.50;99.90;;;;;;4967107;28;20522;-83
2022/09/30 03:55:18;;;;;;;5.47;4.97;;;9.50;99.90;;;;;;4970286;28;20574;-83
2022/09/30 03:57:45;;;;;;;5.70;5.20;;;9.50;99.90;;;;;;4966170;28;20661;-82
2022/09/30 04:00:12;;;;;;;5.43;4.33;;;9.70;99.90;;;;;;4970304;28;20502;-84
2022/09/30 04:02:39;;;;;;;5.43;4.47;;;9.70;99.90;;;;;;4968662;28;22020;-84
2022/09/30 04:05:07;;;;;;;4.87;4.47;;;9.60;99.90;;;;;;4969409;28;20478;-84
2022/09/30 04:07:34;;;;;;;5.47;5.00;;;9.60;99.90;;;;;;4966387;28;20471;-82
2022/09/30 04:10:01;;;;;;;6.83;5.33;;;9.50;99.90;;;;;;4970355;28;20551;-82
2022/09/30 04:12:28;;;;;;;5.20;4.43;;;9.50;99.90;;;;;;4968653;28;20526;-82
2022/09/30 04:14:54;;;;;;;5.97;4.10;;;9.50;99.90;;;;;;4970727;28;20443;-83
2022/09/30 04:17:21;;;;;;;5.63;4.50;;;9.40;99.90;;;;;;4967806;28;20518;-82
2022/09/30 04:19:48;;;;;;;7.43;5.00;;;9.40;99.90;;;;;;4969931;28;20958;-82
2022/09/30 04:22:15;;;;;;;5.10;4.60;;;9.30;99.90;;;;;;4968845;28;20561;-83
2022/09/30 04:24:42;;;;;;;6.70;5.00;;;9.30;99.90;;;;;;4969720;28;20478;-82
2022/09/30 04:27:09;;;;;;;5.27;4.40;;;9.20;99.90;;;;;;4967200;28;20769;-82
2022/09/30 04:29:36;;;;;;;5.50;5.00;;;9.20;99.90;;;;;;4961199;28;20475;-83
2022/09/30 04:32:02;;;;;;;5.70;5.10;;;9.20;99.90;;;;;;4970923;28;21313;-83
2022/09/30 04:34:29;;;;;;;6.70;5.10;;;9.20;99.90;;;;;;4970971;28;20538;-80
2022/09/30 04:36:55;;;;;;;5.57;5.00;;;9.20;99.90;;;;;;4971294;28;20555;-83
2022/09/30 04:39:22;;;;;;;6.23;5.07;;;9.10;99.90;;;;;;4976346;28;20440;-81
2022/09/30 04:41:52;;;;;;;5.03;4.53;;;9.10;99.90;;;;;;4980900;28;20443;-80
2022/09/30 04:44:20;;;;;;;11.13;5.40;;;8.90;99.90;;;;;;4987269;28;20504;-81
2022/09/30 04:46:47;;;;;;;7.83;4.70;;;9.00;99.90;;;;;;4982891;28;20455;-80
2022/09/30 04:49:13;;;;;;;7.47;5.47;;;9.10;99.90;;;;;;4985740;28;20482;-79
2022/09/30 04:51:42;;;;;;;6.20;5.60;;;9.00;99.90;;;;;;4990483;28;20462;-80
2022/09/30 04:54:09;;;;;;;4.60;4.23;;;9.10;99.90;;;;;;4992765;28;20496;-81
2022/09/30 04:56:35;;;;;;;5.63;5.13;;;9.20;99.90;;;;;;4994364;28;20435;-81
2022/09/30 04:59:02;;;;;;;5.60;5.10;;;9.20;99.90;;;;;;4995840;28;20439;-82
2022/09/30 05:01:29;;;;;;;7.50;4.50;;;9.30;99.90;;;;;;4991931;28;20459;-77
2022/09/30 05:03:55;;;;;;;5.57;5.03;;;9.30;99.90;;;;;;4994368;28;20492;-82
2022/09/30 05:06:22;;;;;;;12.00;10.90;;;9.20;99.90;;;;;;4997030;28;20454;-81
2022/09/30 05:08:49;;;;;;;5.73;5.23;;;9.30;99.90;;;;;;4995002;28;20471;-81
2022/09/30 05:11:18;;;;;;;6.00;4.80;;;9.40;99.90;;;;;;4992336;28;20446;-83
2022/09/30 05:13:46;;;;;;;4.27;3.87;;;9.40;99.90;;;;;;4978093;28;20490;-84
2022/09/30 05:16:14;;;;;;;5.87;4.80;;;9.30;99.90;;;;;;4977264;28;21249;-82
2022/09/30 05:18:44;;;;;;;5.40;4.60;;;9.10;99.90;;;;;;4975090;28;20465;-83
2022/09/30 05:21:13;;;;;;;4.90;4.50;;;9.00;99.90;;;;;;4967138;28;21063;-82
2022/09/30 05:23:39;;;;;;;9.27;4.80;;;8.80;99.90;;;;;;4973731;28;20470;-82
2022/09/30 05:26:06;;;;;;;7.87;5.30;;;8.80;99.90;;;;;;4972774;28;20460;-82
2022/09/30 05:28:37;;;;;;;8.93;5.40;;;8.70;99.90;;;;;;4973671;28;20810;-82
2022/09/30 05:31:05;;;;;;;9.23;5.93;;;8.60;99.90;;;;;;4975383;28;20451;-83
2022/09/30 05:33:33;;;;;;;10.90;6.83;;;8.60;99.90;;;;;;4977118;28;20544;-83
2022/09/30 05:36:02;;;;;;;6.97;5.17;;;8.60;99.90;;;;;;4978776;28;21091;-81
2022/09/30 05:38:29;;;;;;;5.60;4.90;;;8.60;99.90;;;;;;4980382;28;20466;-81
2022/09/30 05:40:56;;;;;;;6.87;4.37;;;8.80;99.90;;;;;;4981168;28;20846;-81
2022/09/30 05:43:23;;;;;;;5.00;4.50;;;8.90;99.90;;;;;;4986622;28;20581;-81
2022/09/30 05:45:52;;;;;;;5.40;4.87;;;8.90;99.90;;;;;;4981835;28;20444;-81
2022/09/30 05:48:19;;;;;;;6.53;5.90;;;8.80;99.90;;;;;;4980575;28;20467;-83
2022/09/30 05:50:48;;;;;;;6.87;5.10;;;8.60;99.90;;;;;;4981307;28;20574;-82
2022/09/30 05:53:17;;;;;;;5.40;4.60;;;8.60;99.90;;;;;;4973206;28;20533;-81
2022/09/30 05:55:46;;;;;;;7.87;4.97;;;8.60;99.90;;;;;;4975863;28;20467;-83
2022/09/30 05:58:16;;;;;;;5.33;4.83;;;8.70;99.90;;;;;;4978895;28;20455;-82
2022/09/30 06:00:46;;;;;;;7.43;5.30;;;8.60;99.90;;;;;;4980478;28;20500;-81
2022/09/30 06:03:14;;;;;;;7.70;5.23;;;8.60;99.90;;;;;;4981873;28;20918;-82
2022/09/30 06:05:41;;;;;;;5.83;5.20;;;8.50;99.90;;;;;;4981389;28;20518;-83
2022/09/30 06:08:10;;;;;;;6.00;5.47;;;8.60;99.90;;;;;;4976936;28;20550;-82
2022/09/30 06:10:40;;;;;;;6.60;5.60;;;8.60;99.90;;;;;;4974693;28;20503;-81
2022/09/30 06:13:08;;;;;;;6.80;4.53;;;8.60;99.90;;;;;;4974647;28;20482;-81
2022/09/30 06:15:40;;;;;;;5.43;4.90;;;8.60;99.90;;;;;;4972496;28;21233;-82
2022/09/30 06:18:07;;;;;;;7.07;5.10;;;8.80;99.90;;;;;;4972101;28;20784;-82
2022/09/30 06:20:34;;;;;;;6.60;5.23;;;8.90;99.90;;;;;;4973276;28;21616;-82
2022/09/30 06:23:01;;;;;;;6.40;5.73;;;8.90;99.90;;;;;;4983044;28;20464;-80
2022/09/30 06:25:29;;;;;;;7.00;4.93;;;8.90;99.90;;;;;;4994795;28;20458;-78
2022/09/30 06:27:57;;;;;;;8.87;6.10;;;9.00;99.90;;;;;;4994815;28;20447;-82
2022/09/30 06:30:24;;;;;;;6.50;5.37;;;9.00;99.90;;;;;;4995017;28;20519;-82
2022/09/30 06:32:52;;;;;;;12.90;5.00;;;8.90;99.90;;;;;;4995008;28;20529;-81
2022/09/30 06:35:20;;;;;;;6.10;5.47;;;8.90;99.90;;;;;;4997573;28;20522;-80
2022/09/30 06:37:50;;;;;;;6.07;5.57;;;8.90;99.90;;;;;;5003584;28;20447;-83
2022/09/30 06:40:17;;;;;;;5.23;4.73;;;8.90;99.90;;;;;;5000118;28;20451;-81
2022/09/30 06:42:43;;;;;;;6.17;5.10;;;8.90;99.90;;;;;;4983611;28;20823;-83
2022/09/30 06:45:11;;;;;;;8.37;5.10;;;9.00;99.90;;;;;;4983807;28;20455;-82
2022/09/30 06:47:50;;;;;;;10.23;5.60;;;8.80;99.90;;;;;;5000550;28;20439;-80
2022/09/30 06:50:25;;;;;;;5.20;4.70;;;8.90;99.90;;;;;;5003723;28;20479;-82
2022/09/30 06:53:00;;;;;;;5.23;4.80;;;9.00;99.90;;;;;;5000451;28;20471;-82
2022/09/30 06:55:27;;;;;;;5.77;5.27;;;9.20;99.90;;;;;;4984914;28;20451;-80
2022/09/30 06:57:55;;;;;;;7.40;5.10;;;9.10;99.90;;;;;;4993518;28;20439;-83
2022/09/30 07:00:23;;;;;;;9.30;5.00;;;9.20;99.90;;;;;;4990234;28;20514;-81
2022/09/30 07:02:49;;;;;;;5.80;5.30;;;9.20;99.90;;;;;;4987248;28;20484;-83
2022/09/30 07:05:16;;;;;;;6.80;6.20;;;9.20;99.90;;;;;;4984955;28;20459;-82
2022/09/30 07:07:43;;;;;;;5.23;4.83;;;9.90;99.90;;;;;;4985284;28;20517;-81
2022/09/30 07:10:10;;;;;;;5.43;4.87;;;12.30;99.90;;;;;;4986670;28;20514;-81
2022/09/30 07:12:36;;;;;;;4.53;3.80;;;14.60;97.50;;;;;;4986362;28;20455;-82
2022/09/30 07:15:03;;;;;;;4.53;4.00;;;16.10;92.80;;;;;;4990240;28;20459;-82
2022/09/30 07:17:30;;;;;;;4.87;4.40;;;16.90;89.30;;;;;;4988513;28;20471;-82
2022/09/30 07:19:58;;;;;;;5.00;4.27;;;17.30;85.20;;;;;;4983847;28;20463;-83
2022/09/30 07:22:30;;;;;;;4.77;4.40;;;17.80;82.40;;;;;;4980759;28;20456;-82
2022/09/30 07:24:59;;;;;;;4.67;4.27;;;18.40;80.40;;;;;;4981988;28;20459;-83
2022/09/30 07:27:31;;;;;;;5.07;4.60;;;18.80;77.10;;;;;;4978739;28;20451;-83
2022/09/30 07:29:58;;;;;;;4.87;4.40;;;19.10;75.20;;;;;;4981690;28;21074;-83
2022/09/30 07:32:45;;;;;;;5.23;4.73;;;19.20;74.10;;;;;;4981775;28;20639;-81
2022/09/30 07:35:12;;;;;;;6.97;4.60;;;19.50;71.80;;;;;;4982365;28;20506;-82
2022/09/30 07:37:39;;;;;;;4.53;4.13;;;19.70;71.90;;;;;;4976836;28;20491;-83
2022/09/30 07:40:07;;;;;;;5.37;4.87;;;19.90;69.10;;;;;;4977219;28;20999;-83
2022/09/30 07:42:37;;;;;;;9.17;5.00;;;19.40;70.60;;;;;;4976988;28;20524;-82
2022/09/30 07:45:04;;;;;;;5.10;4.60;;;19.90;69.40;;;;;;4977474;28;21144;-83
2022/09/30 07:47:31;;;;;;;5.63;5.07;;;18.70;69.40;;;;;;4975718;28;20539;-82
2022/09/30 07:49:58;;;;;;;6.93;6.03;;;16.70;75.90;;;;;;4976149;28;20557;-83
2022/09/30 07:52:25;;;;;;;6.60;5.70;;;15.10;84.90;;;;;;4975360;28;20447;-83
2022/09/30 07:54:51;;;;;;;7.03;6.37;;;14.00;90.90;;;;;;4975770;28;21081;-82
2022/09/30 07:57:18;;;;;;;7.80;7.00;;;13.00;93.80;;;;;;4973365;28;20447;-81
2022/09/30 07:59:45;;;;;;;8.00;6.47;;;12.20;95.80;;;;;;4975947;28;20448;-83
2022/09/30 08:02:17;;;;;;;7.90;6.43;;;11.70;97.50;;;;;;4973799;28;21953;-83
2022/09/30 08:04:44;;;;;;;9.40;7.60;;;11.50;99.00;;;;;;4978838;28;20475;-83
2022/09/30 08:07:13;;;;;;;8.63;6.97;;;11.50;99.60;;;;;;4983542;28;20988;-83
2022/09/30 08:09:40;;;;;;;10.20;7.83;;;11.40;99.90;;;;;;4984144;28;20478;-82
2022/09/30 08:12:07;;;;;;;11.33;8.60;;;11.30;99.90;;;;;;4984543;28;20474;-81
2022/09/30 08:14:34;;;;;;;9.90;7.60;;;11.20;99.90;;;;;;4985414;28;20570;-82
2022/09/30 08:17:01;;;;;;;10.30;8.30;;;11.10;99.90;;;;;;4984507;28;20527;-83
2022/09/30 08:19:29;;;;;;;9.67;7.50;;;11.10;99.90;;;;;;4987795;28;21105;-82
2022/09/30 08:21:57;;;;;;;13.70;8.53;;;11.20;99.90;;;;;;4990467;28;20454;-81
2022/09/30 08:24:24;;;;;;;11.00;8.93;;;11.20;99.90;;;;;;4999493;28;20479;-81
2022/09/30 08:26:51;;;;;;;11.47;8.80;;;11.10;99.90;;;;;;4995649;28;20443;-81
2022/09/30 08:29:19;;;;;;;11.17;7.80;;;11.30;99.90;;;;;;4976464;28;20454;-81
2022/09/30 08:32:01;;;;;;;11.80;9.00;;;11.30;99.90;;;;;;4973382;28;20557;-81
2022/09/30 08:34:32;;;;;;;11.73;8.57;;;11.30;99.90;;;;;;4977293;28;20479;-81
2022/09/30 08:36:59;;;;;;;15.10;11.37;;;11.30;99.90;;;;;;4984132;28;20475;-84
2022/09/30 08:39:30;;;;;;;10.80;7.80;;;11.20;99.90;;;;;;4986685;28;20459;-81
2022/09/30 08:42:03;;;;;;;9.43;7.63;;;11.40;99.90;;;;;;4977566;28;20458;-82
2022/09/30 08:44:43;;;;;;;10.60;8.57;;;11.30;99.90;;;;;;4974416;28;20475;-83
2022/09/30 08:47:20;;;;;;;8.30;6.70;;;11.30;99.90;;;;;;4973557;28;20484;-83
2022/09/30 08:50:00;;;;;;;9.60;7.80;;;11.60;99.90;;;;;;4974232;28;20533;-83
2022/09/30 08:52:37;;;;;;;8.53;7.30;;;11.70;99.90;;;;;;4972576;28;20459;-82
2022/09/30 08:55:28;;;;;;;9.93;6.63;;;12.00;99.90;;;;;;4975304;28;20506;-83
2022/09/30 08:57:55;;;;;;;7.43;6.70;;;12.10;99.90;;;;;;4970682;28;20463;-83
2022/09/30 09:00:23;;;;;;;8.53;7.53;;;12.50;99.90;;;;;;4972012;28;20475;-83
2022/09/30 09:02:58;;;;;;;7.90;6.23;;;12.30;99.60;;;;;;4972744;28;20475;-80
2022/09/30 09:05:42;;;;;;;8.80;6.90;;;12.50;99.70;;;;;;4984290;28;20483;-80
2022/09/30 09:08:36;;;;;;;8.10;6.27;;;12.50;99.40;;;;;;4986988;28;20498;-82
2022/09/30 09:11:32;;;;;;;7.57;6.80;;;12.40;99.90;;;;;;4982800;28;20509;-82
2022/09/30 09:14:18;;;;;;;8.47;6.80;;;12.50;99.90;;;;;;4973595;28;20933;-82
2022/09/30 09:16:58;;;;;;;8.67;6.93;;;12.50;99.90;;;;;;4971290;28;20486;-83
2022/09/30 09:19:35;;;;;;;8.10;6.60;;;12.40;99.80;;;;;;4972745;28;20490;-83
2022/09/30 09:22:02;;;;;;;8.03;7.23;;;12.60;99.50;;;;;;4974502;28;20455;-84
2022/09/30 09:24:43;;;;;;;8.97;7.70;;;12.60;99.50;;;;;;4971586;28;20471;-81
2022/09/30 09:27:33;;;;;;;9.90;7.37;;;12.70;99.10;;;;;;4976630;28;20471;-83
2022/09/30 09:31:00;;;;;;;9.40;8.27;;;12.70;98.90;;;;;;4960648;28;20997;-81
2022/09/30 09:33:43;;;;;;;9.50;7.90;;;12.90;98.70;;;;;;4972101;28;20769;-81
2022/09/30 09:36:34;;;;;;;9.20;7.77;;;12.70;99.00;;;;;;4989166;28;20459;-83
2022/09/30 09:40:10;;;;;;;9.60;7.40;;;13.90;99.00;;;;;;4989017;28;20426;-82
2022/09/30 09:43:31;;;;;;;11.07;7.60;;;16.30;93.70;;;;;;4971771;28;21201;-83
2022/09/30 09:47:04;;;;;;;;;;;;;;;;;;;;;
2022/09/30 09:49:57;;;;;;;8.67;7.77;;;19.00;82.30;;;;;;4966821;28;20427;-82
2022/09/30 09:53:32;;;;;;;7.30;6.60;;;19.70;78.90;;;;;;4964957;28;20531;-81
2022/09/30 10:03:28;;;;;;;9.30;8.13;;;20.50;73.10;;;;;;4961215;28;20478;-83
2022/09/30 10:06:55;;;;;;;9.20;7.97;;;21.30;69.50;;;;;;4915381;29;20497;-83
2022/09/30 10:09:49;;;;;;;7.83;7.13;;;21.80;66.90;;;;;;4911070;29;20450;-83
2022/09/30 10:12:36;;;;;;;7.10;6.50;;;21.00;67.00;;;;;;4898474;29;21000;-81
2022/09/30 10:15:37;;;;;;;8.30;7.53;;;20.60;69.80;;;;;;4900362;29;20459;-82
2022/09/30 10:18:22;;;;;;;7.77;7.07;;;21.40;66.70;;;;;;4912154;29;20577;-83
2022/09/30 10:21:20;;;;;;;7.27;6.57;;;20.60;67.10;;;;;;4911796;29;20458;-82
2022/09/30 10:23:59;;;;;;;8.37;7.47;;;19.80;70.50;;;;;;4919986;28;20554;-82
2022/09/30 10:26:43;;;;;;;9.37;6.50;;;19.10;74.20;;;;;;4969636;28;20459;-80
2022/09/30 10:29:46;;;;;;;7.23;6.53;;;18.40;77.30;;;;;;4974761;28;20526;-81
2022/09/30 10:32:18;;;;;;;11.77;8.30;;;17.70;80.50;;;;;;4975029;28;20863;-82
2022/09/30 10:35:29;;;;;;;8.07;7.30;;;17.30;83.10;;;;;;4972996;28;20558;-83
2022/09/30 10:39:04;;;;;;;8.87;7.00;;;17.00;85.10;;;;;;4966259;28;20997;-83
2022/09/30 10:41:42;;;;;;;7.80;5.80;;;17.10;86.40;;;;;;4953180;28;20460;-82
2022/09/30 10:44:50;;;;;;;12.00;7.13;;;17.10;86.00;;;;;;4973206;28;20491;-80
2022/09/30 10:48:42;;;;;;;7.40;6.67;;;17.00;86.50;;;;;;4958374;28;20965;-84
2022/09/30 10:52:04;;;;;;;;;;;;;;;;;;;;;
2022/09/30 10:55:44;;;;;;;6.80;6.07;;;17.20;86.90;;;;;;4892820;29;21222;-83
2022/09/30 10:58:56;;;;;;;7.10;5.97;;;17.20;85.90;;;;;;4887431;29;20498;-83
2022/09/30 11:01:43;;;;;;;7.53;6.37;;;17.10;85.10;;;;;;4911291;29;20439;-81
2022/09/30 11:05:06;;;;;;;6.37;5.77;;;17.30;84.60;;;;;;4903060;29;20475;-81
2022/09/30 11:08:06;;;;;;;8.10;6.00;;;17.40;83.30;;;;;;4913665;29;20502;-81
2022/09/30 11:11:42;;;;;;;7.53;5.93;;;17.40;83.60;;;;;;4905888;29;21081;-81
2022/09/30 11:17:16;;;;;;;5.93;5.37;;;17.90;80.60;;;;;;4992466;28;20501;-81
2022/09/30 11:20:17;;;;;;;6.37;4.70;;;18.20;79.60;;;;;;4996089;28;20513;-83
2022/09/30 11:23:05;;;;;;;6.10;5.20;;;18.60;77.70;;;;;;4997139;28;20478;-84
2022/09/30 11:25:42;;;;;;;6.70;5.30;;;19.10;74.90;;;;;;5001036;28;20454;-82
2022/09/30 11:28:35;;;;;;;8.13;5.53;;;19.40;72.40;;;;;;4985680;28;20447;-83
2022/09/30 11:34:19;;;;;;;5.50;4.80;;;20.10;69.30;;;;;;4996879;28;20560;-83
2022/09/30 11:41:21;;;;;;;5.70;5.10;;;21.30;63.50;;;;;;4962022;28;20438;-83
2022/09/30 11:44:28;;;;;;;4.37;3.97;;;21.60;63.10;;;;;;4980665;28;20880;-82
2022/09/30 11:47:29;;;;;;;7.50;3.97;;;22.20;60.00;;;;;;4976275;28;20473;-82
2022/09/30 11:50:35;;;;;;;4.10;3.80;;;21.60;60.30;;;;;;4988926;28;20467;-82
2022/09/30 12:07:02;;;;;;;3.80;3.50;;;21.00;60.00;;;;;;4117732;26;21109;-83
2022/09/30 12:16:55;;;;;;;;;;;;;;;;;;;;;
2022/09/30 12:20:21;;;;;;;;;;;;;;;;;;;;;
2022/09/30 12:23:27;;;;;;;4.10;3.27;;;19.30;65.50;;;;;;4904427;22;20801;-82
2022/09/30 12:33:31;;;;;;;3.60;3.27;;;21.10;62.10;;;;;;4932997;28;20651;-82
2022/09/30 12:36:40;;;;;;;3.30;3.00;;;22.00;57.90;;;;;;4940707;28;20565;-82
2022/09/30 12:40:19;;;;;;;3.40;3.03;;;21.30;58.20;;;;;;4953297;28;20445;-80
2022/09/30 12:43:40;;;;;;;3.07;2.77;;;20.60;60.00;;;;;;4953157;28;20465;-81
2022/09/30 12:46:49;;;;;;;3.00;2.37;;;21.10;58.70;;;;;;4953269;28;20499;-81
2022/09/30 12:49:50;;;;;;;;;;;;;;;;;;;;;
2022/09/30 12:53:14;;;;;;;4.83;2.53;;;22.10;57.10;;;;;;4988777;28;20500;-84
2022/09/30 12:56:30;;;;;;;2.23;1.87;;;22.50;55.80;;;;;;4954332;28;20435;-83
2022/09/30 12:59:30;;;;;;;1.60;1.50;;;22.50;53.00;;;;;;4983466;28;20487;-82
2022/09/30 13:02:23;;;;;;;1.60;1.50;;;22.70;50.50;;;;;;4988406;28;20447;-83
2022/09/30 13:05:45;;;;;;;6.33;3.00;;;22.70;50.60;;;;;;5014562;28;20468;-83
2022/09/30 13:08:51;;;;;;;1.60;1.47;;;21.50;50.90;;;;;;4991132;28;20458;-83
2022/09/30 13:11:56;;;;;;;3.93;1.30;;;21.80;52.00;;;;;;4985373;28;21526;-81
2022/09/30 13:21:27;;;;;;;2.47;1.50;;;21.50;51.20;;;;;;4947077;28;20937;-82
2022/09/30 13:27:19;;;;;;;2.37;1.30;;;22.70;49.30;;;;;;3299723;26;20484;-83
2022/09/30 13:30:20;;;;;;;1.00;0.90;;;22.20;49.10;;;;;;5034225;28;20847;-82
2022/09/30 13:33:01;;;;;;;0.93;0.93;;;22.40;48.70;;;;;;5058228;22;20489;-81
2022/09/30 13:35:37;;;;;;;1.53;1.43;;;22.30;49.00;;;;;;4999035;28;20481;-83
2022/09/30 13:39:00;;;;;;;1.13;1.00;;;22.00;49.30;;;;;;5000755;28;20472;-84
2022/09/30 13:45:39;;;;;;;1.17;1.07;;;21.70;49.00;;;;;;4947044;28;20546;-84
2022/09/30 13:49:00;;;;;;;1.90;1.10;;;21.50;49.70;;;;;;4958524;28;20478;-83
2022/09/30 13:52:17;;;;;;;1.40;1.13;;;21.90;49.00;;;;;;4983834;28;20486;-83
2022/09/30 13:55:33;;;;;;;3.60;1.17;;;21.80;49.30;;;;;;4894663;29;20473;-83
2022/09/30 13:59:02;;;;;;;1.70;1.60;;;21.50;50.20;;;;;;4886340;29;20458;-84
2022/09/30 14:02:26;;;;;;;1.30;1.20;;;21.50;50.80;;;;;;4863330;29;20451;-83
2022/09/30 14:05:42;;;;;;;1.30;1.20;;;21.70;48.80;;;;;;4851777;29;20596;-83
2022/09/30 14:08:49;;;;;;;1.40;1.30;;;21.30;49.30;;;;;;4851388;29;20452;-84
2022/09/30 14:11:52;;;;;;;1.77;1.40;;;21.10;50.00;;;;;;4850664;29;20500;-83
2022/09/30 14:15:13;;;;;;;1.30;1.20;;;20.70;50.80;;;;;;4855886;29;20477;-83
2022/09/30 14:18:21;;;;;;;1.30;1.20;;;20.90;50.70;;;;;;4857314;29;20486;-83
2022/09/30 14:21:23;;;;;;;7.60;1.77;;;20.60;51.10;;;;;;4913981;29;20495;-84
2022/09/30 14:24:23;;;;;;;2.13;1.83;;;20.40;50.90;;;;;;4915881;29;20485;-81
2022/09/30 14:31:19;;;;;;;;;;;;;;;;;;;;;
2022/09/30 14:33:51;;;;;;;1.80;1.37;;;20.50;48.70;;;;;;5045660;23;21058;-82
2022/09/30 14:36:50;;;;;;;2.50;1.20;;;20.10;49.80;;;;;;4987533;28;21052;-82
2022/09/30 14:39:35;;;;;;;1.93;1.50;;;20.40;49.40;;;;;;4985147;28;20450;-82
2022/09/30 14:42:02;;;;;;;4.80;4.30;;;20.10;50.20;;;;;;4988217;28;20467;-84
2022/09/30 14:44:35;;;;;;;1.70;1.47;;;19.90;50.70;;;;;;4983869;28;20485;-83
2022/09/30 14:47:04;;;;;;;2.50;1.57;;;20.00;50.80;;;;;;4978940;28;20458;-82
2022/09/30 14:49:38;;;;;;;1.50;1.40;;;20.10;50.70;;;;;;4981546;28;20463;-81
2022/09/30 14:52:57;;;;;;;1.80;1.57;;;20.00;50.80;;;;;;4981157;28;20472;-84
2022/09/30 14:55:32;;;;;;;1.97;1.77;;;19.90;51.30;;;;;;4970107;28;20470;-83
2022/09/30 14:58:38;;;;;;;1.70;1.27;;;19.80;51.80;;;;;;4979189;28;20456;-84
2022/09/30 15:01:16;;;;;;;1.47;1.37;;;19.90;51.90;;;;;;4979059;28;20488;-84
2022/09/30 15:03:55;;;;;;;1.83;1.40;;;19.90;51.40;;;;;;4980519;28;20567;-82
2022/09/30 15:06:27;;;;;;;2.40;1.70;;;20.00;51.40;;;;;;4981257;28;20461;-84
2022/09/30 15:09:14;;;;;;;4.50;1.50;;;19.90;51.40;;;;;;4989748;28;20466;-82
2022/09/30 15:11:41;;;;;;;1.50;1.40;;;19.80;51.10;;;;;;4990468;28;20479;-84
2022/09/30 15:14:23;;;;;;;1.93;1.30;;;19.60;51.20;;;;;;4997143;28;20466;-83